Pagrindinis puslapis
METAR-TAF:

METAR-TAF

Oro uostai :

Samujis, Tailandas

platuma: 09-32-52N, ilguma: 100-03-44E, Aukštis: 20 m

Dabartinis oras

Ataskaita buvo paskelbta 41 minutes, ne 07:30 UTC
Vėjas 10 kt iš Šiaurės Rytų
Temperatūra 31°C
Drėgmė 66%
Slėgis 1014 hPa
Matomumas: 9000 m
Mažai debesys ne aukštis 2000 ft, aukštai iškilę kamuoliniai debesys.

METAR: VTSM 230730Z 04010KT 9000 FEW020TCU 31/24 Q1014 NOSIG

Laikas: 15:11 (08:11 UTC)

Prognozė

Ataskaita buvo paskelbta 3 valandos ir 11 minutes, ne 05:00 UTC
Prognozė galioja nuo 23 metu 06 UTC su 24 metu 06 UTC
Vėjas 12 kt iš Rytų/Pietryčių
Matomumas: 9000 m
Mažai debesys ne aukštis 2000 ft
Laikinai
nuo 23 metu 06 UTC su 23 metu 12 UTC
Matomumas: 5000 m
Išsisklaidę debesys ne aukštis 1500 ft
Su prošvaistėmis ne aukštis 10000 ft
lietus

TAF: VTSM 230500Z 2306/2406 12012KT 9000 FEW020 TEMPO 2306/2312 5000 RA SCT015 BKN100

Orai ataskaitas ir orų prognozės (METAR, TAF).

turimą stotys yra geltonos ir raudonos taškus žemėlapyje.

Perkelti pele per norėdami pamatyti stoties vardą.

Tada spustelėkite, norėdami matyti oro stebėjimo ir prognozės.

Norėdami pakeisti žemėlapį: spustelėkite ant žalios mygtukų su juodo kryžiaus žemyn,; žalią mygtuką su brūkšneliu, jei norite nutolinti; arba žalių rodyklių gretimoms žemėlapius.


METAR-TAF: